Time;durP1;ratioP1;P1;durP2;ratioP2;P2;SDS_P1;SDS_P2;PMS_P1;PMS_P2;Temp;Humidity;BMP_temperature;BMP_pressure;BME280_temperature;BME280_humidity;BME280_pressure;Samples;Min_cycle;Max_cycle;Signal;HPM_P1;HPM_P2
2023/06/29 00:02:14;;;;;;;7.22;2.92;;;;;;;;;;10470604;28;20484;-58
2023/06/29 00:07:15;;;;;;;6.43;2.85;;;;;;;;;;10482754;28;20033;-58
2023/06/29 00:12:16;;;;;;;4.45;3.15;;;;;;;;;;10498549;28;20032;-58
2023/06/29 00:17:16;;;;;;;7.38;2.78;;;;;;;;;;10466185;28;20508;-59
2023/06/29 00:22:18;;;;;;;6.53;2.50;;;;;;;;;;10457694;28;20029;-60
2023/06/29 00:27:19;;;;;;;3.38;2.30;;;;;;;;;;10477653;28;20105;-59
2023/06/29 00:32:20;;;;;;;4.88;2.67;;;;;;;;;;10482294;28;20051;-61
2023/06/29 00:37:20;;;;;;;4.78;2.67;;;;;;;;;;10475817;28;20056;-59
2023/06/29 00:42:21;;;;;;;9.95;2.80;;;;;;;;;;10464881;28;20039;-59
2023/06/29 00:47:22;;;;;;;5.65;3.17;;;;;;;;;;10483051;28;20531;-59
2023/06/29 00:52:23;;;;;;;8.20;3.28;;;;;;;;;;10468258;28;20206;-59
2023/06/29 00:57:24;;;;;;;5.32;2.60;;;;;;;;;;10486067;28;20037;-60
2023/06/29 01:02:25;;;;;;;5.10;2.75;;;;;;;;;;10469601;28;20024;-59
2023/06/29 01:07:36;;;;;;;4.05;2.60;;;;;;;;;;10466122;28;20193;-58
2023/06/29 01:12:39;;;;;;;6.65;2.25;;;;;;;;;;10496553;28;20020;-58
2023/06/29 01:17:40;;;;;;;4.47;2.55;;;;;;;;;;10465600;28;20028;-58
2023/06/29 01:22:55;;;;;;;2.95;2.20;;;;;;;;;;10487751;28;20078;-59
2023/06/29 01:27:56;;;;;;;5.90;2.30;;;;;;;;;;10473100;28;20024;-59
2023/06/29 01:32:57;;;;;;;5.47;2.28;;;;;;;;;;10494990;28;20040;-59
2023/06/29 01:38:07;;;;;;;3.22;2.30;;;;;;;;;;10494249;28;20028;-59
2023/06/29 01:43:07;;;;;;;2.58;2.38;;;;;;;;;;10491966;28;20424;-59
2023/06/29 01:48:09;;;;;;;5.10;2.45;;;;;;;;;;10490847;28;20029;-58
2023/06/29 01:53:10;;;;;;;3.13;2.30;;;;;;;;;;10490246;28;20439;-59
2023/06/29 01:58:10;;;;;;;4.95;2.85;;;;;;;;;;10491288;28;20036;-59
2023/06/29 02:03:11;;;;;;;3.45;2.67;;;;;;;;;;10490848;28;20032;-59
2023/06/29 02:08:12;;;;;;;2.95;2.40;;;;;;;;;;10491583;28;20024;-59
2023/06/29 02:13:12;;;;;;;6.10;3.03;;;;;;;;;;10491099;28;20031;-59
2023/06/29 02:18:13;;;;;;;3.75;2.60;;;;;;;;;;10491763;28;20060;-59
2023/06/29 02:23:14;;;;;;;5.68;3.00;;;;;;;;;;10491370;28;20468;-59
2023/06/29 02:28:14;;;;;;;7.57;3.33;;;;;;;;;;10489924;28;20259;-59
2023/06/29 02:33:15;;;;;;;5.50;3.75;;;;;;;;;;10490706;28;20094;-59
2023/06/29 02:38:15;;;;;;;5.18;3.47;;;;;;;;;;10491628;28;20043;-59
2023/06/29 02:43:16;;;;;;;12.13;3.22;;;;;;;;;;10491615;28;20032;-59
2023/06/29 02:48:18;;;;;;;5.10;2.92;;;;;;;;;;10499168;28;20043;-58
2023/06/29 02:53:18;;;;;;;4.65;2.55;;;;;;;;;;10497911;28;20028;-58
2023/06/29 02:58:19;;;;;;;3.42;2.72;;;;;;;;;;10497341;28;20032;-60
2023/06/29 03:03:20;;;;;;;6.25;2.97;;;;;;;;;;10497602;28;20919;-59
2023/06/29 03:08:20;;;;;;;5.13;2.90;;;;;;;;;;10497822;28;20528;-59
2023/06/29 03:13:21;;;;;;;7.55;3.63;;;;;;;;;;10497979;28;20037;-59
2023/06/29 03:18:22;;;;;;;9.65;3.92;;;;;;;;;;10496661;28;20094;-59
2023/06/29 03:23:22;;;;;;;12.20;3.80;;;;;;;;;;10497488;28;20037;-59
2023/06/29 03:28:23;;;;;;;12.77;3.58;;;;;;;;;;10497139;28;20021;-59
2023/06/29 03:33:23;;;;;;;6.47;3.30;;;;;;;;;;10497065;28;20382;-60
2023/06/29 03:38:24;;;;;;;6.82;3.00;;;;;;;;;;10500482;28;20028;-59
2023/06/29 03:43:24;;;;;;;6.28;2.72;;;;;;;;;;10496717;28;20029;-59
2023/06/29 03:48:28;;;;;;;4.57;3.05;;;;;;;;;;10497118;28;20032;-59
2023/06/29 03:53:29;;;;;;;3.97;2.53;;;;;;;;;;10495221;28;20024;-58
2023/06/29 03:58:29;;;;;;;5.78;2.85;;;;;;;;;;10492896;28;20041;-58
2023/06/29 04:03:30;;;;;;;4.32;3.30;;;;;;;;;;10495584;28;20028;-60
2023/06/29 04:08:32;;;;;;;6.45;2.92;;;;;;;;;;10494092;28;20036;-59
2023/06/29 04:13:33;;;;;;;4.63;3.22;;;;;;;;;;10486922;28;20052;-59
2023/06/29 04:18:35;;;;;;;7.30;3.38;;;;;;;;;;10492626;28;20024;-58
2023/06/29 04:23:36;;;;;;;9.50;4.40;;;;;;;;;;10492910;28;20460;-59
2023/06/29 04:28:36;;;;;;;7.38;3.92;;;;;;;;;;10492670;28;20040;-59
2023/06/29 04:33:38;;;;;;;4.38;3.20;;;;;;;;;;10492572;28;20090;-59
2023/06/29 04:38:38;;;;;;;6.90;2.80;;;;;;;;;;10497725;28;20036;-58
2023/06/29 04:43:39;;;;;;;9.88;3.03;;;;;;;;;;10494773;28;20078;-58
2023/06/29 04:48:39;;;;;;;8.40;3.10;;;;;;;;;;10494106;28;20468;-60
2023/06/29 04:53:41;;;;;;;6.97;3.33;;;;;;;;;;10492128;28;20020;-58
2023/06/29 04:58:41;;;;;;;10.82;2.90;;;;;;;;;;10475199;28;20404;-58
2023/06/29 05:03:42;;;;;;;15.15;2.85;;;;;;;;;;10490861;28;20024;-59
2023/06/29 05:08:43;;;;;;;5.72;2.80;;;;;;;;;;10491303;28;20023;-59
2023/06/29 05:13:43;;;;;;;8.98;2.63;;;;;;;;;;10492430;28;20028;-59
2023/06/29 05:18:55;;;;;;;8.55;2.67;;;;;;;;;;10491475;28;20495;-60
2023/06/29 05:23:56;;;;;;;7.22;2.55;;;;;;;;;;10491412;28;20012;-59
2023/06/29 05:28:57;;;;;;;18.75;3.50;;;;;;;;;;10489683;28;20044;-59
2023/06/29 05:33:58;;;;;;;19.50;3.53;;;;;;;;;;10490163;28;20045;-61
2023/06/29 05:38:59;;;;;;;9.68;2.78;;;;;;;;;;10488256;28;20036;-62
2023/06/29 05:43:59;;;;;;;11.45;2.88;;;;;;;;;;10490044;28;20032;-62
2023/06/29 05:49:01;;;;;;;5.00;2.53;;;;;;;;;;10492422;28;20029;-62
2023/06/29 05:54:03;;;;;;;8.27;2.38;;;;;;;;;;10497181;28;20267;-61
2023/06/29 05:59:04;;;;;;;8.40;2.75;;;;;;;;;;10489692;28;20029;-62
2023/06/29 06:04:05;;;;;;;14.52;2.60;;;;;;;;;;10484297;28;20389;-61
2023/06/29 06:09:06;;;;;;;14.25;2.70;;;;;;;;;;10483929;28;20089;-61
2023/06/29 06:14:07;;;;;;;6.38;2.50;;;;;;;;;;10488045;28;20358;-61
2023/06/29 06:19:07;;;;;;;8.93;2.63;;;;;;;;;;10492943;28;20086;-62
2023/06/29 06:24:08;;;;;;;7.55;2.35;;;;;;;;;;10496935;28;20040;-58
2023/06/29 06:29:08;;;;;;;11.25;2.72;;;;;;;;;;10498289;28;20107;-58
2023/06/29 06:34:09;;;;;;;7.53;2.60;;;;;;;;;;10497662;28;20049;-58
2023/06/29 06:39:09;;;;;;;22.10;3.10;;;;;;;;;;10503052;28;20035;-57
2023/06/29 06:44:10;;;;;;;13.10;3.30;;;;;;;;;;10498840;28;20036;-59
2023/06/29 06:49:11;;;;;;;10.15;2.67;;;;;;;;;;10499134;28;20029;-58
2023/06/29 06:54:11;;;;;;;8.18;2.63;;;;;;;;;;10498437;28;20020;-60
2023/06/29 06:59:13;;;;;;;11.75;2.72;;;;;;;;;;10498132;28;20035;-58
2023/06/29 07:04:13;;;;;;;12.95;2.92;;;;;;;;;;10498085;28;20024;-59
2023/06/29 07:09:14;;;;;;;10.77;2.78;;;;;;;;;;10497822;28;20479;-60
2023/06/29 07:14:16;;;;;;;11.30;2.92;;;;;;;;;;10497902;28;20027;-58
2023/06/29 07:19:17;;;;;;;12.43;2.13;;;;;;;;;;10498628;28;20016;-57
2023/06/29 07:24:21;;;;;;;13.25;3.00;;;;;;;;;;10497546;28;20400;-60
2023/06/29 07:29:21;;;;;;;4.53;2.30;;;;;;;;;;10496929;28;20028;-58
2023/06/29 07:34:25;;;;;;;13.68;2.58;;;;;;;;;;10497737;28;20037;-59
2023/06/29 07:39:25;;;;;;;6.00;2.78;;;;;;;;;;10501589;28;20461;-57
2023/06/29 07:44:27;;;;;;;4.72;2.55;;;;;;;;;;10496888;28;20024;-58
2023/06/29 07:49:27;;;;;;;5.95;2.40;;;;;;;;;;10496205;28;20591;-59
2023/06/29 07:54:28;;;;;;;7.72;2.50;;;;;;;;;;10496741;28;20263;-63
2023/06/29 07:59:28;;;;;;;3.10;2.10;;;;;;;;;;10495464;28;20039;-59
2023/06/29 08:04:29;;;;;;;4.45;2.40;;;;;;;;;;10496953;28;20028;-57
2023/06/29 08:09:29;;;;;;;3.97;1.65;;;;;;;;;;10496288;28;20025;-58
2023/06/29 08:14:32;;;;;;;7.70;2.25;;;;;;;;;;10496742;28;20082;-58
2023/06/29 08:19:33;;;;;;;6.60;2.40;;;;;;;;;;10495078;28;20102;-60
2023/06/29 08:24:33;;;;;;;8.85;2.35;;;;;;;;;;10495533;28;20098;-59
2023/06/29 08:29:34;;;;;;;7.15;2.05;;;;;;;;;;10494052;28;20017;-58
2023/06/29 08:34:35;;;;;;;7.93;2.30;;;;;;;;;;10492554;28;20393;-58
2023/06/29 08:39:35;;;;;;;7.68;2.03;;;;;;;;;;10493554;28;20374;-58
2023/06/29 08:44:36;;;;;;;14.68;2.33;;;;;;;;;;10490101;28;20074;-58
2023/06/29 08:49:39;;;;;;;6.28;1.92;;;;;;;;;;10484783;28;20186;-58
2023/06/29 08:54:39;;;;;;;4.30;2.05;;;;;;;;;;10492621;28;20074;-58
2023/06/29 08:59:40;;;;;;;5.57;2.67;;;;;;;;;;10481430;28;20094;-58
2023/06/29 09:04:41;;;;;;;4.72;3.03;;;;;;;;;;10484849;28;20032;-57
2023/06/29 09:09:43;;;;;;;6.25;2.10;;;;;;;;;;10491071;28;20028;-59
2023/06/29 09:14:44;;;;;;;9.50;3.38;;;;;;;;;;10457253;28;20048;-57
2023/06/29 09:19:56;;;;;;;3.13;1.90;;;;;;;;;;10460399;28;20404;-57
2023/06/29 09:24:58;;;;;;;5.22;2.22;;;;;;;;;;10460882;28;20021;-60
2023/06/29 09:30:00;;;;;;;4.00;1.92;;;;;;;;;;10457523;28;20032;-57
2023/06/29 09:35:09;;;;;;;8.52;2.70;;;;;;;;;;10465967;28;20044;-57
2023/06/29 09:40:12;;;;;;;4.78;2.00;;;;;;;;;;10492924;28;20037;-57
2023/06/29 09:45:14;;;;;;;2.88;2.13;;;;;;;;;;10489685;28;20036;-57
2023/06/29 09:50:22;;;;;;;10.80;2.38;;;;;;;;;;10475946;28;20059;-60
2023/06/29 09:55:30;;;;;;;5.78;1.83;;;;;;;;;;10495393;28;21477;-61
2023/06/29 10:00:32;;;;;;;4.13;2.20;;;;;;;;;;10488832;28;20052;-60
2023/06/29 10:05:33;;;;;;;4.15;2.33;;;;;;;;;;10489943;28;20021;-60
2023/06/29 10:10:34;;;;;;;7.38;2.30;;;;;;;;;;10476013;28;20047;-60
2023/06/29 10:15:37;;;;;;;2.83;2.03;;;;;;;;;;10489534;28;20039;-60
2023/06/29 10:20:40;;;;;;;6.57;1.85;;;;;;;;;;10481161;28;20441;-60
2023/06/29 10:25:46;;;;;;;2.85;1.80;;;;;;;;;;10476774;28;20037;-58
2023/06/29 10:30:48;;;;;;;3.00;2.08;;;;;;;;;;10456208;28;20090;-57
2023/06/29 10:35:54;;;;;;;3.58;2.13;;;;;;;;;;10480347;28;20040;-58
2023/06/29 10:40:55;;;;;;;3.22;1.90;;;;;;;;;;10493680;28;20024;-57
2023/06/29 10:45:58;;;;;;;2.55;1.65;;;;;;;;;;10483778;28;20020;-57
2023/06/29 11:04:17;;;;;;;4.78;2.08;;;;;;;;;;10477913;28;20037;-57
2023/06/29 11:09:19;;;;;;;5.45;1.90;;;;;;;;;;10494281;28;20271;-58
2023/06/29 11:14:20;;;;;;;4.88;2.10;;;;;;;;;;10493676;28;20420;-60
2023/06/29 11:19:27;;;;;;;4.78;1.98;;;;;;;;;;10488826;28;20035;-59
2023/06/29 11:24:27;;;;;;;3.83;1.80;;;;;;;;;;10493274;28;20032;-56
2023/06/29 11:29:29;;;;;;;1.80;1.70;;;;;;;;;;10475574;28;20452;-58
2023/06/29 11:34:29;;;;;;;3.25;1.80;;;;;;;;;;10471754;28;20113;-57
2023/06/29 11:39:30;;;;;;;2.20;1.85;;;;;;;;;;10494291;28;20074;-57
2023/06/29 11:44:31;;;;;;;2.53;1.48;;;;;;;;;;10490371;28;20048;-57
2023/06/29 11:49:33;;;;;;;8.55;2.05;;;;;;;;;;10491519;28;20043;-58
2023/06/29 11:54:33;;;;;;;6.13;2.10;;;;;;;;;;10487950;28;20441;-57
2023/06/29 11:59:39;;;;;;;4.20;1.88;;;;;;;;;;10487941;28;20116;-58
2023/06/29 12:05:00;;;;;;;4.00;1.77;;;;;;;;;;10488489;28;20035;-57
2023/06/29 12:10:08;;;;;;;3.45;1.88;;;;;;;;;;10490719;28;20032;-58
2023/06/29 12:15:21;;;;;;;3.17;1.90;;;;;;;;;;10489403;28;20024;-58
2023/06/29 12:20:23;;;;;;;5.03;1.90;;;;;;;;;;10487892;28;20495;-57
2023/06/29 12:25:24;;;;;;;22.60;2.22;;;;;;;;;;10492159;28;20028;-58
2023/06/29 12:30:25;;;;;;;4.63;1.70;;;;;;;;;;10479527;28;20087;-57
2023/06/29 12:35:25;;;;;;;7.78;2.25;;;;;;;;;;10479527;28;20040;-57
2023/06/29 12:40:26;;;;;;;2.72;1.50;;;;;;;;;;10475724;28;20109;-58
2023/06/29 12:45:28;;;;;;;2.70;1.85;;;;;;;;;;10491571;28;20024;-61
2023/06/29 12:50:28;;;;;;;5.90;2.08;;;;;;;;;;10493000;28;20279;-59
2023/06/29 12:55:29;;;;;;;13.43;2.17;;;;;;;;;;10491621;28;20587;-61
2023/06/29 13:00:29;;;;;;;6.65;2.00;;;;;;;;;;10488339;28;20416;-59
2023/06/29 13:05:30;;;;;;;8.15;2.03;;;;;;;;;;10489618;28;20036;-60
2023/06/29 13:10:31;;;;;;;3.55;1.88;;;;;;;;;;10487267;28;20024;-61
2023/06/29 13:15:31;;;;;;;7.88;2.38;;;;;;;;;;10484362;28;20526;-59
2023/06/29 13:20:32;;;;;;;3.53;2.15;;;;;;;;;;10481805;28;20091;-58
2023/06/29 13:25:33;;;;;;;7.97;1.85;;;;;;;;;;10470167;28;20051;-58
2023/06/29 13:30:35;;;;;;;3.80;1.98;;;;;;;;;;10490053;28;20025;-58
2023/06/29 13:35:36;;;;;;;7.25;2.20;;;;;;;;;;10495422;28;20572;-57
2023/06/29 13:40:36;;;;;;;2.28;1.80;;;;;;;;;;10487767;28;20074;-57
2023/06/29 13:45:37;;;;;;;2.40;2.03;;;;;;;;;;10494959;28;20532;-61
2023/06/29 13:50:38;;;;;;;3.53;2.22;;;;;;;;;;10486324;28;20101;-62
2023/06/29 13:55:38;;;;;;;6.18;2.17;;;;;;;;;;10489462;28;20428;-61
2023/06/29 14:00:40;;;;;;;7.10;2.38;;;;;;;;;;10486963;28;20025;-58
2023/06/29 14:05:40;;;;;;;11.15;2.35;;;;;;;;;;10476320;28;20116;-58
2023/06/29 14:10:41;;;;;;;20.92;2.70;;;;;;;;;;10489093;28;20198;-58
2023/06/29 14:15:41;;;;;;;16.27;2.80;;;;;;;;;;10479919;28;20036;-58
2023/06/29 14:20:42;;;;;;;31.27;3.13;;;;;;;;;;10487077;28;20039;-58
2023/06/29 14:25:43;;;;;;;34.60;3.88;;;;;;;;;;10479937;28;20040;-60
2023/06/29 14:30:43;;;;;;;36.92;4.28;;;;;;;;;;10487231;28;20020;-58
2023/06/29 14:35:44;;;;;;;24.67;3.15;;;;;;;;;;10477301;28;20036;-59
2023/06/29 14:40:44;;;;;;;23.65;3.58;;;;;;;;;;10492962;28;20036;-59
2023/06/29 14:45:45;;;;;;;20.83;3.35;;;;;;;;;;10479271;28;20032;-58
2023/06/29 14:50:46;;;;;;;12.73;2.58;;;;;;;;;;10489365;28;20032;-59
2023/06/29 14:55:48;;;;;;;6.35;2.65;;;;;;;;;;10493217;28;20035;-59
2023/06/29 15:00:49;;;;;;;8.00;2.80;;;;;;;;;;10493220;28;20459;-59
2023/06/29 15:05:49;;;;;;;9.27;2.85;;;;;;;;;;10485933;28;20024;-59
2023/06/29 15:10:50;;;;;;;4.47;2.80;;;;;;;;;;10476215;28;20040;-59
2023/06/29 15:15:50;;;;;;;8.27;2.67;;;;;;;;;;10493938;28;20032;-58
2023/06/29 15:20:51;;;;;;;8.73;2.80;;;;;;;;;;10493300;28;20396;-60
2023/06/29 15:25:51;;;;;;;3.20;2.40;;;;;;;;;;10489810;28;20458;-59
2023/06/29 15:30:52;;;;;;;6.28;2.35;;;;;;;;;;10493415;28;20082;-58
2023/06/29 15:35:53;;;;;;;5.53;2.38;;;;;;;;;;10482259;28;20040;-59
2023/06/29 15:40:53;;;;;;;6.80;2.70;;;;;;;;;;10495713;28;20028;-58
2023/06/29 15:45:54;;;;;;;6.72;2.55;;;;;;;;;;10495123;28;20480;-58
2023/06/29 15:50:54;;;;;;;6.22;2.88;;;;;;;;;;10494874;28;20047;-58
2023/06/29 15:55:55;;;;;;;4.13;2.30;;;;;;;;;;10494351;28;20909;-58
2023/06/29 16:00:55;;;;;;;7.68;3.13;;;;;;;;;;10493574;28;20031;-58
2023/06/29 16:05:56;;;;;;;5.10;2.60;;;;;;;;;;10493836;28;20024;-59
2023/06/29 16:10:57;;;;;;;7.90;2.30;;;;;;;;;;10493720;28;20040;-59
2023/06/29 16:15:57;;;;;;;7.80;2.15;;;;;;;;;;10494454;28;20028;-58
2023/06/29 16:20:58;;;;;;;4.95;2.53;;;;;;;;;;10491107;28;20117;-59
2023/06/29 16:25:59;;;;;;;2.67;2.13;;;;;;;;;;10489454;28;20055;-58
2023/06/29 16:31:00;;;;;;;7.55;2.55;;;;;;;;;;10492192;28;20040;-59
2023/06/29 16:36:01;;;;;;;4.32;2.33;;;;;;;;;;10489142;28;20127;-60
2023/06/29 16:41:02;;;;;;;7.53;2.53;;;;;;;;;;10492730;28;20419;-60
2023/06/29 16:46:02;;;;;;;6.82;2.10;;;;;;;;;;10492346;28;20033;-60
2023/06/29 16:51:03;;;;;;;8.85;2.85;;;;;;;;;;10487781;28;20115;-60
2023/06/29 16:56:04;;;;;;;4.88;2.40;;;;;;;;;;10489943;28;20036;-60
2023/06/29 17:01:07;;;;;;;6.18;2.13;;;;;;;;;;10489589;28;20036;-59
2023/06/29 17:06:08;;;;;;;5.47;2.13;;;;;;;;;;10489943;28;20068;-61
2023/06/29 17:11:08;;;;;;;4.32;2.08;;;;;;;;;;10489911;28;20107;-60
2023/06/29 17:16:09;;;;;;;5.93;2.15;;;;;;;;;;10490229;28;20028;-60
2023/06/29 17:21:10;;;;;;;4.30;2.83;;;;;;;;;;10484220;28;20025;-61
2023/06/29 17:26:10;;;;;;;6.22;2.10;;;;;;;;;;10488593;28;20024;-61
2023/06/29 17:31:11;;;;;;;14.25;2.28;;;;;;;;;;10490938;28;20033;-60
2023/06/29 17:36:11;;;;;;;5.22;2.75;;;;;;;;;;10489472;28;20040;-60
2023/06/29 17:41:12;;;;;;;3.88;2.17;;;;;;;;;;10485737;28;20067;-60
2023/06/29 17:46:13;;;;;;;4.05;2.20;;;;;;;;;;10477876;28;20054;-60
2023/06/29 17:51:15;;;;;;;4.57;2.65;;;;;;;;;;10489388;28;20158;-59
2023/06/29 17:56:16;;;;;;;5.15;2.13;;;;;;;;;;10477805;28;20021;-60
2023/06/29 18:01:17;;;;;;;4.22;1.90;;;;;;;;;;10490384;28;20056;-60
2023/06/29 18:06:18;;;;;;;5.78;2.17;;;;;;;;;;10489089;28;20021;-61
2023/06/29 18:11:18;;;;;;;4.38;2.15;;;;;;;;;;10491097;28;20024;-60
2023/06/29 18:16:19;;;;;;;2.88;2.00;;;;;;;;;;10484553;28;20028;-60
2023/06/29 18:21:19;;;;;;;4.40;2.17;;;;;;;;;;10487637;28;20029;-60
2023/06/29 18:26:22;;;;;;;2.42;2.05;;;;;;;;;;10488018;28;20024;-60
2023/06/29 18:31:23;;;;;;;3.55;1.83;;;;;;;;;;10488659;28;20032;-60
2023/06/29 18:36:23;;;;;;;7.75;1.85;;;;;;;;;;10487180;28;20052;-60
2023/06/29 18:41:33;;;;;;;3.10;1.95;;;;;;;;;;10490458;28;20029;-60
2023/06/29 18:47:11;;;;;;;3.53;1.80;;;;;;;;;;10477175;28;20036;-60
2023/06/29 18:52:12;;;;;;;2.13;1.70;;;;;;;;;;10478082;28;20036;-60
2023/06/29 18:57:12;;;;;;;2.15;1.73;;;;;;;;;;10476152;28;20040;-60
2023/06/29 19:02:13;;;;;;;4.10;1.95;;;;;;;;;;10477178;28;20033;-61
2023/06/29 19:07:16;;;;;;;8.60;2.00;;;;;;;;;;10487666;28;20110;-61
2023/06/29 19:12:16;;;;;;;6.25;2.50;;;;;;;;;;10476762;28;20473;-61
2023/06/29 19:17:17;;;;;;;5.90;2.08;;;;;;;;;;10486708;28;20020;-60
2023/06/29 19:22:18;;;;;;;10.18;2.22;;;;;;;;;;10486145;28;20078;-60
2023/06/29 19:27:18;;;;;;;3.72;1.80;;;;;;;;;;10491800;28;20025;-61
2023/06/29 19:32:19;;;;;;;5.40;2.35;;;;;;;;;;10492700;28;20093;-61
2023/06/29 19:37:19;;;;;;;4.82;1.70;;;;;;;;;;10495632;28;20025;-61
2023/06/29 19:42:20;;;;;;;3.25;1.80;;;;;;;;;;10496722;28;20024;-61
2023/06/29 19:47:21;;;;;;;3.35;2.00;;;;;;;;;;10493693;28;20098;-61
2023/06/29 19:52:22;;;;;;;3.72;1.88;;;;;;;;;;10491856;28;20032;-61
2023/06/29 19:57:23;;;;;;;3.05;1.65;;;;;;;;;;10493018;28;20032;-61
2023/06/29 20:02:23;;;;;;;2.65;1.60;;;;;;;;;;10491012;28;20028;-60
2023/06/29 20:07:24;;;;;;;2.28;1.63;;;;;;;;;;10490753;28;20082;-60
2023/06/29 20:12:24;;;;;;;3.25;1.73;;;;;;;;;;10492444;28;20373;-60
2023/06/29 20:17:25;;;;;;;2.78;1.75;;;;;;;;;;10490287;28;20041;-60
2023/06/29 20:22:26;;;;;;;2.55;1.70;;;;;;;;;;10490746;28;20560;-61
2023/06/29 20:27:27;;;;;;;2.25;1.70;;;;;;;;;;10488226;28;20487;-60
2023/06/29 20:32:28;;;;;;;2.75;1.80;;;;;;;;;;10491182;28;20040;-59
2023/06/29 20:37:28;;;;;;;3.45;1.83;;;;;;;;;;10500126;28;20124;-59
2023/06/29 20:42:29;;;;;;;5.32;1.50;;;;;;;;;;10479527;28;20504;-59
2023/06/29 20:47:29;;;;;;;3.28;1.92;;;;;;;;;;10475386;28;20047;-60
2023/06/29 20:52:30;;;;;;;2.35;1.60;;;;;;;;;;10492379;28;20491;-59
2023/06/29 20:57:31;;;;;;;1.85;1.63;;;;;;;;;;10488335;28;20492;-60
2023/06/29 21:02:31;;;;;;;7.05;2.47;;;;;;;;;;10483825;28;20401;-59
2023/06/29 21:07:32;;;;;;;21.90;5.35;;;;;;;;;;10490529;28;20385;-60
2023/06/29 21:12:33;;;;;;;25.38;4.82;;;;;;;;;;10488610;28;20134;-60
2023/06/29 21:17:34;;;;;;;22.15;3.60;;;;;;;;;;10482582;28;20040;-60
2023/06/29 21:22:35;;;;;;;19.10;4.55;;;;;;;;;;10487282;28;20028;-60
2023/06/29 21:27:37;;;;;;;15.13;4.15;;;;;;;;;;10482670;28;20039;-59
2023/06/29 21:32:37;;;;;;;26.33;3.85;;;;;;;;;;10482517;28;20448;-61
2023/06/29 21:37:38;;;;;;;13.57;3.30;;;;;;;;;;10486166;28;20037;-60
2023/06/29 21:42:39;;;;;;;18.48;2.90;;;;;;;;;;10488481;28;20035;-59
2023/06/29 21:47:39;;;;;;;21.02;3.00;;;;;;;;;;10482825;28;20033;-60
2023/06/29 21:52:40;;;;;;;8.25;2.63;;;;;;;;;;10489030;28;20125;-60
2023/06/29 21:57:40;;;;;;;5.88;2.53;;;;;;;;;;10487941;28;20033;-59
2023/06/29 22:02:43;;;;;;;6.93;2.75;;;;;;;;;;10485266;28;20036;-60
2023/06/29 22:07:43;;;;;;;12.43;3.08;;;;;;;;;;10487091;28;20115;-61
2023/06/29 22:12:44;;;;;;;6.65;2.67;;;;;;;;;;10487122;28;20101;-61
2023/06/29 22:17:48;;;;;;;11.32;3.00;;;;;;;;;;10489184;28;20556;-59
2023/06/29 22:22:49;;;;;;;6.95;3.13;;;;;;;;;;10488935;28;20031;-61
2023/06/29 22:27:50;;;;;;;9.52;2.80;;;;;;;;;;10485190;28;20373;-61
2023/06/29 22:32:51;;;;;;;13.00;3.28;;;;;;;;;;10485513;28;20123;-61
2023/06/29 22:37:52;;;;;;;10.77;3.38;;;;;;;;;;10484148;28;20040;-60
2023/06/29 22:42:52;;;;;;;15.13;3.33;;;;;;;;;;10478377;28;20028;-60
2023/06/29 22:47:53;;;;;;;6.45;3.33;;;;;;;;;;10488605;28;20047;-60
2023/06/29 22:52:53;;;;;;;9.57;3.45;;;;;;;;;;10488235;28;20017;-59
2023/06/29 22:57:54;;;;;;;6.72;2.97;;;;;;;;;;10478203;28;20035;-60
2023/06/29 23:02:54;;;;;;;5.93;3.00;;;;;;;;;;10486232;28;20032;-59
2023/06/29 23:07:55;;;;;;;8.23;3.17;;;;;;;;;;10483597;28;20028;-60
2023/06/29 23:12:57;;;;;;;7.00;3.72;;;;;;;;;;10494153;28;20024;-61
2023/06/29 23:17:58;;;;;;;9.25;4.47;;;;;;;;;;10497723;28;20119;-61
2023/06/29 23:22:59;;;;;;;18.08;4.85;;;;;;;;;;10488513;28;20028;-61
2023/06/29 23:28:03;;;;;;;6.57;4.13;;;;;;;;;;10483978;28;20081;-61
2023/06/29 23:33:03;;;;;;;7.80;4.50;;;;;;;;;;10481980;28;20101;-62
2023/06/29 23:38:04;;;;;;;9.10;5.45;;;;;;;;;;10490343;28;20445;-61
2023/06/29 23:43:05;;;;;;;10.23;5.47;;;;;;;;;;10495910;28;20070;-61
2023/06/29 23:48:06;;;;;;;13.02;5.70;;;;;;;;;;10480116;28;20468;-62
2023/06/29 23:53:07;;;;;;;9.85;5.40;;;;;;;;;;10493176;28;20365;-61
2023/06/29 23:58:10;;;;;;;7.18;4.63;;;;;;;;;;10494011;28;20029;-61
